Time;durP1;ratioP1;P1;durP2;ratioP2;P2;SDS_P1;SDS_P2;PMS_P1;PMS_P2;Temp;Humidity;BMP_temperature;BMP_pressure;BME280_temperature;BME280_humidity;BME280_pressure;Samples;Min_cycle;Max_cycle;Signal;HPM_P1;HPM_P2
2020/12/06 01:21:30;;;;;;;20.67;16.85;;;1.20;99.90;;;;;;4981003;28;20240;-95
2020/12/06 01:24:03;;;;;;;21.48;17.00;;;1.30;99.90;;;;;;5220412;23;20225;-91
2020/12/06 01:29:13;;;;;;;20.40;16.65;;;1.30;99.90;;;;;;5000376;28;20196;-96
2020/12/06 01:57:01;;;;;;;21.25;15.50;;;1.30;99.90;;;;;;4988381;28;20241;-96
2020/12/06 02:02:09;;;;;;;22.65;18.80;;;1.30;99.90;;;;;;4990029;28;20244;-95
2020/12/06 02:04:36;;;;;;;21.08;17.08;;;1.30;99.90;;;;;;4989522;28;20227;-96
2020/12/06 02:10:04;;;;;;;22.85;17.23;;;1.50;99.90;;;;;;4995128;28;20212;-94
2020/12/06 02:12:34;;;;;;;21.75;18.00;;;1.40;99.90;;;;;;4990244;28;20209;-93
2020/12/06 02:15:04;;;;;;;23.27;17.25;;;1.50;99.90;;;;;;4983884;28;20188;-94
2020/12/06 02:20:27;;;;;;;22.05;17.95;;;1.50;99.90;;;;;;4975120;28;20211;-94
2020/12/06 02:25:48;;;;;;;20.98;15.57;;;1.40;99.90;;;;;;4964848;28;20232;-95
2020/12/06 02:28:15;;;;;;;24.42;18.60;;;1.30;99.90;;;;;;4966272;28;20206;-94
2020/12/06 02:36:33;;;;;;;24.27;17.77;;;1.40;99.90;;;;;;4965247;28;20221;-94
2020/12/06 02:39:01;;;;;;;21.25;16.55;;;1.30;99.90;;;;;;4969327;28;20278;-94
2020/12/06 02:44:24;;;;;;;21.13;16.33;;;1.30;99.90;;;;;;4973943;28;20207;-94
2020/12/06 02:47:01;;;;;;;19.23;16.17;;;1.30;99.90;;;;;;4984235;28;20230;-96
2020/12/06 02:49:30;;;;;;;21.95;16.88;;;1.30;99.90;;;;;;4970013;28;20191;-94
2020/12/06 02:52:05;;;;;;;23.92;17.75;;;1.10;99.90;;;;;;4984008;28;20196;-94
2020/12/06 02:54:32;;;;;;;20.30;16.20;;;1.30;99.90;;;;;;4973439;28;20252;-95
2020/12/06 02:57:08;;;;;;;22.80;17.25;;;1.30;99.90;;;;;;4970265;28;20228;-94
2020/12/06 02:59:42;;;;;;;24.65;18.20;;;1.30;99.90;;;;;;4972915;28;20200;-94
2020/12/06 03:02:10;;;;;;;22.50;18.20;;;1.30;99.90;;;;;;4969009;28;20259;-94
2020/12/06 03:04:38;;;;;;;23.13;18.23;;;1.40;99.90;;;;;;4956825;28;20194;-94
2020/12/06 03:07:08;;;;;;;21.77;18.15;;;1.30;99.90;;;;;;4971813;28;20284;-94
2020/12/06 03:12:16;;;;;;;23.23;17.90;;;1.90;99.90;;;;;;4973500;28;20197;-95
2020/12/06 03:15:11;;;;;;;20.02;16.80;;;1.40;99.90;;;;;;4961067;29;20196;-96
2020/12/06 03:17:39;;;;;;;22.15;16.05;;;1.40;99.90;;;;;;4961814;28;20177;-94
2020/12/06 03:20:07;;;;;;;22.85;17.60;;;1.50;99.90;;;;;;4976185;28;20197;-95
2020/12/06 03:22:35;;;;;;;24.20;19.25;;;1.60;99.90;;;;;;4985847;28;20208;-93
2020/12/06 03:25:07;;;;;;;23.02;16.67;;;1.80;99.90;;;;;;4998184;28;20229;-94
2020/12/06 03:27:48;;;;;;;27.67;19.10;;;1.60;99.90;;;;;;4998899;28;20174;-95
2020/12/06 03:30:20;;;;;;;23.42;18.33;;;1.60;99.90;;;;;;4999035;28;20194;-94
2020/12/06 03:32:47;;;;;;;22.98;18.05;;;1.80;99.90;;;;;;4999111;28;20181;-94
2020/12/06 03:35:14;;;;;;;24.15;18.60;;;2.00;99.90;;;;;;4999114;28;20180;-93
2020/12/06 03:37:42;;;;;;;23.60;20.05;;;1.80;99.90;;;;;;4981645;28;20202;-92
2020/12/06 03:40:08;;;;;;;24.52;20.17;;;1.70;99.90;;;;;;4989597;28;20268;-92
2020/12/06 03:42:35;;;;;;;30.23;19.83;;;1.80;99.90;;;;;;4988589;28;20227;-91
2020/12/06 03:45:02;;;;;;;24.00;18.88;;;1.70;99.90;;;;;;4979885;28;20197;-93
2020/12/06 03:47:28;;;;;;;24.10;18.83;;;1.80;99.90;;;;;;4966360;28;20200;-93
2020/12/06 03:49:54;;;;;;;25.85;18.63;;;1.80;99.90;;;;;;4963820;28;20193;-93
2020/12/06 03:52:21;;;;;;;26.92;19.67;;;1.80;99.90;;;;;;4983314;28;20197;-92
2020/12/06 03:54:48;;;;;;;23.52;19.40;;;1.90;99.90;;;;;;4997689;28;20265;-92
2020/12/06 03:57:15;;;;;;;22.90;18.75;;;2.50;99.90;;;;;;4997989;28;20300;-92
2020/12/06 03:59:42;;;;;;;23.00;19.00;;;2.10;99.90;;;;;;4986123;28;20193;-92
2020/12/06 04:02:09;;;;;;;25.27;18.60;;;1.90;99.90;;;;;;4965602;28;20217;-93
2020/12/06 04:04:35;;;;;;;27.92;19.60;;;2.00;99.90;;;;;;4979609;28;20190;-93
2020/12/06 04:07:01;;;;;;;21.70;17.85;;;2.00;99.90;;;;;;4982994;28;20194;-92
2020/12/06 04:09:35;;;;;;;22.30;17.25;;;2.00;99.90;;;;;;4986416;28;20196;-93
2020/12/06 04:12:09;;;;;;;25.08;18.63;;;2.00;99.90;;;;;;4983740;28;20198;-94
2020/12/06 04:14:35;;;;;;;24.75;18.45;;;2.00;99.90;;;;;;4971409;28;20705;-93
2020/12/06 04:17:02;;;;;;;27.40;20.88;;;2.00;99.90;;;;;;4961579;28;20262;-93
2020/12/06 04:19:28;;;;;;;25.02;19.90;;;2.00;99.90;;;;;;4967888;28;20607;-92
2020/12/06 04:21:55;;;;;;;28.25;20.20;;;2.00;99.90;;;;;;4976427;28;20203;-93
2020/12/06 04:24:21;;;;;;;20.52;17.88;;;2.50;99.90;;;;;;4982318;28;20522;-93
2020/12/06 04:26:48;;;;;;;24.08;20.48;;;2.00;99.90;;;;;;4985235;28;20637;-94
2020/12/06 04:29:15;;;;;;;24.38;19.88;;;2.00;99.90;;;;;;4978764;28;20189;-94
2020/12/06 04:31:42;;;;;;;24.90;19.95;;;2.20;99.90;;;;;;4981016;28;20180;-94
2020/12/06 04:34:08;;;;;;;26.10;21.42;;;2.00;99.90;;;;;;5000592;28;20177;-93
2020/12/06 04:36:35;;;;;;;22.88;19.23;;;2.70;99.90;;;;;;5000820;28;20254;-93
2020/12/06 04:39:01;;;;;;;25.25;19.13;;;2.30;99.90;;;;;;4997387;28;20188;-93
2020/12/06 04:41:29;;;;;;;27.05;21.67;;;2.40;99.90;;;;;;4993958;28;20792;-91
2020/12/06 04:43:56;;;;;;;35.78;26.60;;;2.00;99.90;;;;;;4961904;28;20194;-92
2020/12/06 04:46:24;;;;;;;44.92;34.45;;;2.50;99.90;;;;;;4961283;28;20201;-92
2020/12/06 04:49:03;;;;;;;42.75;35.08;;;2.00;99.90;;;;;;4979860;28;20185;-94
2020/12/06 04:51:34;;;;;;;35.58;28.73;;;2.00;99.90;;;;;;4964735;28;20189;-93
2020/12/06 04:54:03;;;;;;;30.90;25.52;;;2.00;99.90;;;;;;4980200;28;20208;-93
2020/12/06 04:56:30;;;;;;;27.90;23.45;;;2.30;99.90;;;;;;4964377;28;20193;-93
2020/12/06 04:58:59;;;;;;;27.45;20.35;;;2.10;99.90;;;;;;4980252;28;20209;-93
2020/12/06 05:01:33;;;;;;;26.52;19.73;;;2.00;99.90;;;;;;4980693;28;20222;-93
2020/12/06 05:04:06;;;;;;;24.15;19.73;;;2.10;99.90;;;;;;4981710;28;20208;-92
2020/12/06 05:06:32;;;;;;;26.23;20.50;;;2.10;99.90;;;;;;4979123;28;20193;-93
2020/12/06 05:08:59;;;;;;;30.67;20.58;;;2.10;99.90;;;;;;4980884;28;20640;-92
2020/12/06 05:11:26;;;;;;;24.27;20.77;;;2.10;99.90;;;;;;4969736;28;20713;-94
2020/12/06 05:13:53;;;;;;;27.30;20.00;;;2.40;99.90;;;;;;4969701;28;20206;-93
2020/12/06 05:16:21;;;;;;;27.67;21.63;;;2.10;99.90;;;;;;4982197;28;20203;-94
2020/12/06 05:18:51;;;;;;;28.77;20.92;;;2.20;99.90;;;;;;4989434;28;20205;-93
2020/12/06 05:21:18;;;;;;;27.08;21.10;;;2.10;99.90;;;;;;4975896;28;20228;-93
2020/12/06 05:23:47;;;;;;;29.35;20.10;;;2.10;99.90;;;;;;4970762;28;20196;-92
2020/12/06 05:26:16;;;;;;;26.13;21.90;;;2.10;99.90;;;;;;4979043;28;20308;-93
2020/12/06 05:28:42;;;;;;;26.10;18.95;;;2.20;99.90;;;;;;4981454;28;20189;-92
2020/12/06 05:31:08;;;;;;;28.75;21.48;;;2.20;99.90;;;;;;4974244;28;20213;-93
2020/12/06 05:33:35;;;;;;;31.60;21.15;;;2.70;99.90;;;;;;4980006;28;20198;-93
2020/12/06 05:36:02;;;;;;;28.52;22.02;;;2.50;99.90;;;;;;4980357;28;20197;-93
2020/12/06 05:38:30;;;;;;;23.63;18.33;;;2.20;99.90;;;;;;4985627;28;20205;-93
2020/12/06 05:40:57;;;;;;;27.05;21.65;;;2.20;99.90;;;;;;4964640;28;20217;-93
2020/12/06 05:43:30;;;;;;;26.73;19.23;;;2.30;99.90;;;;;;4965105;28;20191;-93
2020/12/06 05:46:08;;;;;;;27.38;20.17;;;2.30;99.90;;;;;;4960769;28;20250;-93
2020/12/06 05:48:36;;;;;;;24.83;19.80;;;2.40;99.90;;;;;;4971382;28;20191;-93
2020/12/06 05:51:07;;;;;;;25.13;20.25;;;2.30;99.90;;;;;;4979514;28;20209;-93
2020/12/06 05:53:34;;;;;;;27.55;21.15;;;2.30;99.90;;;;;;4981204;28;20200;-92
2020/12/06 05:56:05;;;;;;;26.10;20.58;;;2.30;99.90;;;;;;4983539;28;20185;-92
2020/12/06 05:58:34;;;;;;;26.83;21.60;;;2.30;99.90;;;;;;4987667;28;20185;-96
2020/12/06 06:01:01;;;;;;;28.33;22.23;;;2.30;99.90;;;;;;4978629;28;20569;-89
2020/12/06 06:03:32;;;;;;;27.85;20.00;;;2.70;99.90;;;;;;4976907;28;20326;-90
2020/12/06 06:06:00;;;;;;;29.17;21.85;;;2.70;99.90;;;;;;4977103;28;20412;-89
2020/12/06 06:08:28;;;;;;;28.63;22.80;;;2.30;99.90;;;;;;4976221;28;20194;-89
2020/12/06 06:11:19;;;;;;;30.45;21.98;;;2.30;99.90;;;;;;4976914;28;20205;-89
2020/12/06 06:13:51;;;;;;;26.20;20.75;;;2.20;99.90;;;;;;4969642;28;20566;-89
2020/12/06 06:16:20;;;;;;;26.92;21.23;;;2.20;99.90;;;;;;4978018;28;20284;-92
2020/12/06 06:18:48;;;;;;;34.78;24.83;;;2.20;99.90;;;;;;4976746;28;20196;-90
2020/12/06 06:21:15;;;;;;;28.67;22.40;;;2.20;99.90;;;;;;4978527;28;20229;-91
2020/12/06 06:23:46;;;;;;;30.45;22.45;;;2.30;99.90;;;;;;4966815;28;20194;-94
2020/12/06 06:26:14;;;;;;;28.58;22.63;;;2.20;99.90;;;;;;4977622;28;20237;-90
2020/12/06 06:28:42;;;;;;;27.45;21.95;;;2.20;99.90;;;;;;4976723;28;20205;-91
2020/12/06 06:31:11;;;;;;;30.38;22.35;;;2.20;99.90;;;;;;4977042;28;20289;-93
2020/12/06 06:33:39;;;;;;;34.30;24.67;;;2.30;99.90;;;;;;4978590;28;20200;-92
2020/12/06 06:36:06;;;;;;;31.83;24.67;;;2.60;99.90;;;;;;4978327;28;20200;-92
2020/12/06 06:38:47;;;;;;;31.27;23.42;;;2.30;99.90;;;;;;4975619;28;20200;-93
2020/12/06 06:41:17;;;;;;;33.53;24.52;;;2.20;99.90;;;;;;4961732;28;20588;-92
2020/12/06 06:43:44;;;;;;;34.65;22.35;;;2.30;99.90;;;;;;4963478;28;20204;-91
2020/12/06 06:46:13;;;;;;;30.33;24.85;;;2.30;99.90;;;;;;4984021;28;20618;-93
2020/12/06 06:48:40;;;;;;;32.25;24.33;;;2.30;99.90;;;;;;4982434;28;20276;-93
2020/12/06 06:51:07;;;;;;;35.22;24.35;;;2.30;99.90;;;;;;4983533;28;20200;-93
2020/12/06 06:53:36;;;;;;;32.58;22.88;;;2.30;99.90;;;;;;4984827;28;20185;-93
2020/12/06 06:56:03;;;;;;;36.33;24.98;;;2.40;99.90;;;;;;4974541;28;20190;-90
2020/12/06 06:58:32;;;;;;;36.17;26.45;;;2.40;99.90;;;;;;4976381;28;20204;-89
2020/12/06 07:01:17;;;;;;;34.80;26.15;;;2.40;99.90;;;;;;4978305;28;20216;-88
2020/12/06 07:03:44;;;;;;;36.85;26.65;;;2.40;99.90;;;;;;4996443;28;20280;-92
2020/12/06 07:06:11;;;;;;;40.90;27.02;;;2.30;99.90;;;;;;4992323;28;20186;-92
2020/12/06 07:08:39;;;;;;;35.80;26.17;;;2.30;99.90;;;;;;4966310;28;20201;-91
2020/12/06 07:11:06;;;;;;;33.65;26.27;;;2.40;99.90;;;;;;4980334;28;20205;-91
2020/12/06 07:13:35;;;;;;;37.60;25.63;;;2.30;99.90;;;;;;4995157;28;20185;-92
2020/12/06 07:16:10;;;;;;;32.53;25.35;;;2.40;99.90;;;;;;4994349;28;20189;-91
2020/12/06 07:18:39;;;;;;;39.85;27.27;;;2.80;99.90;;;;;;4969033;28;20202;-91
2020/12/06 07:21:06;;;;;;;36.28;28.65;;;2.70;99.90;;;;;;4973073;28;20257;-92
2020/12/06 07:23:33;;;;;;;38.40;28.83;;;2.40;99.90;;;;;;4975893;28;20250;-92
2020/12/06 07:25:59;;;;;;;42.78;31.55;;;2.40;99.90;;;;;;4974200;28;20226;-91
2020/12/06 07:28:26;;;;;;;34.83;27.73;;;2.40;99.90;;;;;;4977030;28;20192;-92
2020/12/06 07:30:53;;;;;;;35.83;25.33;;;2.40;99.90;;;;;;4993657;28;20190;-89
2020/12/06 07:33:21;;;;;;;32.38;25.42;;;2.70;99.90;;;;;;4988928;28;20201;-92
2020/12/06 07:35:47;;;;;;;38.97;27.05;;;2.50;99.90;;;;;;4979807;28;20284;-92
2020/12/06 07:38:15;;;;;;;29.42;25.30;;;3.00;99.90;;;;;;4986800;28;20201;-91
2020/12/06 07:40:41;;;;;;;36.05;25.73;;;2.50;99.90;;;;;;4979543;28;20202;-89
2020/12/06 07:43:13;;;;;;;44.13;27.65;;;2.50;99.90;;;;;;4983648;28;20216;-92
2020/12/06 07:45:40;;;;;;;33.55;25.00;;;2.50;99.90;;;;;;4986917;28;20202;-90
2020/12/06 07:48:20;;;;;;;45.42;29.88;;;2.40;99.90;;;;;;4988356;28;20204;-93
2020/12/06 07:50:47;;;;;;;39.88;27.05;;;2.50;99.90;;;;;;4971610;28;20190;-92
2020/12/06 07:53:15;;;;;;;35.55;26.77;;;3.00;99.90;;;;;;4979105;28;20193;-91
2020/12/06 07:55:42;;;;;;;38.42;26.73;;;2.70;99.90;;;;;;4991824;28;20204;-91
2020/12/06 07:58:14;;;;;;;38.83;28.33;;;2.50;99.90;;;;;;4983576;28;20185;-89
2020/12/06 08:00:40;;;;;;;45.38;30.20;;;2.60;99.90;;;;;;4970020;28;20201;-90
2020/12/06 08:03:09;;;;;;;38.97;29.25;;;2.60;99.90;;;;;;4978781;28;20222;-91
2020/12/06 08:05:40;;;;;;;41.45;27.08;;;2.60;99.90;;;;;;4989649;28;20193;-91
2020/12/06 08:08:13;;;;;;;37.67;29.48;;;2.60;99.90;;;;;;4989800;28;20204;-90
2020/12/06 08:10:40;;;;;;;39.78;29.00;;;2.70;99.90;;;;;;4989388;28;20193;-93
2020/12/06 08:13:10;;;;;;;39.00;28.75;;;2.70;99.90;;;;;;4989795;28;20634;-90
2020/12/06 08:15:38;;;;;;;40.38;30.58;;;3.20;99.90;;;;;;4988732;28;20194;-93
2020/12/06 08:18:15;;;;;;;35.35;25.15;;;2.80;99.90;;;;;;4994319;28;20206;-91
2020/12/06 08:23:36;;;;;;;33.88;26.42;;;2.90;99.90;;;;;;4990357;28;20738;-91
2020/12/06 08:26:03;;;;;;;35.20;28.25;;;3.70;99.90;;;;;;4989300;28;20221;-90
2020/12/06 08:28:31;;;;;;;41.65;29.98;;;3.20;99.90;;;;;;4987441;28;20202;-90
2020/12/06 08:30:58;;;;;;;40.13;31.40;;;3.00;99.90;;;;;;4991553;28;20190;-91
2020/12/06 08:33:26;;;;;;;35.53;26.88;;;3.00;99.90;;;;;;4981418;28;20198;-88
2020/12/06 08:35:56;;;;;;;35.28;25.83;;;3.10;99.90;;;;;;4973477;28;20543;-90
2020/12/06 08:38:24;;;;;;;37.08;29.65;;;3.10;99.90;;;;;;4978758;28;20221;-89
2020/12/06 08:41:05;;;;;;;35.15;25.10;;;3.20;99.90;;;;;;4984044;28;20227;-89
2020/12/06 08:43:46;;;;;;;40.90;28.50;;;3.40;99.90;;;;;;4981402;28;20232;-91
2020/12/06 08:46:15;;;;;;;36.35;25.98;;;3.30;99.90;;;;;;4980872;28;20228;-90
2020/12/06 08:48:43;;;;;;;32.47;25.15;;;3.50;99.90;;;;;;4978903;28;20247;-89
2020/12/06 08:51:26;;;;;;;37.50;28.35;;;3.30;99.90;;;;;;4979387;28;20186;-87
2020/12/06 08:53:53;;;;;;;36.63;28.25;;;3.40;99.90;;;;;;4972085;28;20221;-87
2020/12/06 08:56:30;;;;;;;32.30;23.38;;;3.70;99.90;;;;;;4960496;28;20202;-86
2020/12/06 08:59:01;;;;;;;29.55;24.02;;;3.50;99.90;;;;;;4978522;28;20187;-87
2020/12/06 09:01:28;;;;;;;34.47;28.02;;;3.50;99.90;;;;;;4980022;28;20217;-86
2020/12/06 09:03:57;;;;;;;37.13;27.55;;;3.50;99.90;;;;;;4981478;28;20262;-85
2020/12/06 09:06:23;;;;;;;34.97;26.10;;;3.60;99.90;;;;;;4983265;28;20201;-86
2020/12/06 09:08:51;;;;;;;34.67;26.35;;;3.60;99.90;;;;;;4985499;28;20191;-86
2020/12/06 09:11:19;;;;;;;35.67;26.00;;;3.90;99.90;;;;;;4984992;28;20646;-86
2020/12/06 09:13:45;;;;;;;36.22;26.63;;;3.70;99.90;;;;;;4981160;28;20224;-85
2020/12/06 09:16:12;;;;;;;35.08;28.10;;;3.70;99.90;;;;;;4983181;28;20225;-85
2020/12/06 09:18:38;;;;;;;40.42;28.63;;;3.80;99.90;;;;;;4984056;28;20194;-85
2020/12/06 09:21:06;;;;;;;35.17;25.90;;;4.10;99.90;;;;;;4984679;28;20206;-86
2020/12/06 09:23:33;;;;;;;34.38;23.98;;;3.90;99.90;;;;;;4979505;28;20669;-86
2020/12/06 09:26:00;;;;;;;32.92;24.25;;;4.00;99.90;;;;;;4977794;28;20703;-86
2020/12/06 09:28:26;;;;;;;30.48;23.15;;;4.10;99.90;;;;;;4978051;28;20198;-86
2020/12/06 09:30:53;;;;;;;32.42;22.02;;;4.10;99.90;;;;;;4977918;28;20198;-87
2020/12/06 09:33:19;;;;;;;30.02;21.45;;;4.20;99.90;;;;;;4977840;28;20187;-86
2020/12/06 09:35:45;;;;;;;28.05;21.50;;;4.30;99.90;;;;;;4979346;28;20193;-85
2020/12/06 09:38:12;;;;;;;27.98;21.00;;;4.40;99.90;;;;;;4979747;28;20250;-85
2020/12/06 09:40:42;;;;;;;26.85;21.45;;;4.40;99.90;;;;;;4977555;28;20191;-86
2020/12/06 09:43:08;;;;;;;30.08;21.73;;;4.50;99.90;;;;;;4977085;28;20215;-85
2020/12/06 09:45:35;;;;;;;29.45;21.15;;;4.50;99.90;;;;;;4976677;28;20198;-86
2020/12/06 09:48:01;;;;;;;28.00;21.40;;;4.50;99.90;;;;;;4976828;28;20190;-86
2020/12/06 09:50:27;;;;;;;32.45;20.15;;;4.50;99.90;;;;;;4976512;28;20556;-86
2020/12/06 09:52:54;;;;;;;28.35;21.65;;;4.50;99.90;;;;;;4976433;28;20195;-85
2020/12/06 09:55:21;;;;;;;28.40;20.98;;;4.50;99.90;;;;;;4976255;28;20194;-85
2020/12/06 09:57:47;;;;;;;27.08;20.52;;;4.50;99.90;;;;;;4976023;28;20195;-86
2020/12/06 10:00:14;;;;;;;26.25;20.42;;;4.40;99.90;;;;;;4975760;28;20195;-85
2020/12/06 10:02:43;;;;;;;31.90;22.92;;;4.70;99.90;;;;;;4975685;28;20241;-85
2020/12/06 10:05:09;;;;;;;32.03;23.42;;;4.50;99.90;;;;;;4975894;28;20205;-85
2020/12/06 10:07:36;;;;;;;29.25;22.65;;;4.60;99.90;;;;;;4976279;28;20578;-85
2020/12/06 10:10:02;;;;;;;32.30;21.85;;;4.60;99.90;;;;;;4976391;28;20195;-86
2020/12/06 10:12:29;;;;;;;28.27;20.27;;;4.50;99.90;;;;;;4976458;28;20565;-85
2020/12/06 10:14:55;;;;;;;32.70;24.05;;;4.50;99.90;;;;;;4974311;28;20192;-84
2020/12/06 10:17:22;;;;;;;33.60;22.95;;;4.50;99.90;;;;;;4961051;28;20270;-85
2020/12/06 10:19:48;;;;;;;33.28;22.13;;;4.60;99.90;;;;;;4957614;28;20188;-88
2020/12/06 10:22:14;;;;;;;33.50;22.48;;;4.60;99.90;;;;;;4956787;29;20211;-85
2020/12/06 10:24:41;;;;;;;29.40;23.05;;;4.60;99.90;;;;;;4967886;28;20222;-84
2020/12/06 10:27:07;;;;;;;30.88;20.80;;;4.60;99.90;;;;;;4974353;28;20194;-84
2020/12/06 10:29:34;;;;;;;32.22;22.45;;;4.70;99.90;;;;;;4976581;28;20191;-84
2020/12/06 10:32:00;;;;;;;27.33;21.20;;;4.70;99.90;;;;;;4978230;28;20205;-85
2020/12/06 10:34:27;;;;;;;27.33;20.33;;;4.70;99.90;;;;;;4983905;28;20271;-85
2020/12/06 10:36:56;;;;;;;31.52;22.25;;;4.70;99.90;;;;;;4984360;28;20187;-84
2020/12/06 10:39:23;;;;;;;31.10;23.48;;;4.70;99.90;;;;;;4983861;28;20186;-85
2020/12/06 10:41:50;;;;;;;29.63;21.25;;;4.80;99.90;;;;;;4983185;28;20222;-86
2020/12/06 10:44:16;;;;;;;30.02;22.33;;;4.90;99.90;;;;;;4983876;28;20197;-85
2020/12/06 10:46:44;;;;;;;29.83;21.55;;;4.90;99.90;;;;;;4984423;28;20197;-87
2020/12/06 10:49:10;;;;;;;34.30;23.50;;;4.90;99.90;;;;;;4982411;28;20187;-86
2020/12/06 10:51:38;;;;;;;34.75;24.35;;;4.80;99.90;;;;;;4983733;28;20191;-85
2020/12/06 10:54:04;;;;;;;32.13;23.25;;;4.90;99.90;;;;;;4984565;28;20251;-86
2020/12/06 10:56:31;;;;;;;32.75;23.35;;;4.80;99.90;;;;;;4977884;28;20202;-84
2020/12/06 10:58:57;;;;;;;32.92;24.38;;;4.80;99.90;;;;;;4986323;28;20456;-87
2020/12/06 11:01:25;;;;;;;30.45;23.02;;;4.80;99.90;;;;;;4983454;28;20197;-86
2020/12/06 11:03:53;;;;;;;36.45;23.88;;;4.70;99.90;;;;;;4981822;28;20186;-87
2020/12/06 11:06:20;;;;;;;36.42;25.02;;;4.70;99.90;;;;;;4975555;28;20195;-86
2020/12/06 11:08:47;;;;;;;41.30;26.35;;;4.70;99.90;;;;;;4978412;28;20198;-86
2020/12/06 11:11:13;;;;;;;40.05;27.08;;;4.70;99.90;;;;;;4980858;28;20191;-86
2020/12/06 11:13:40;;;;;;;37.40;26.85;;;4.80;99.90;;;;;;4983599;28;20226;-86
2020/12/06 11:16:06;;;;;;;35.13;24.67;;;4.80;99.90;;;;;;4968918;28;20195;-86
2020/12/06 11:18:32;;;;;;;38.33;25.67;;;4.80;99.90;;;;;;4975950;28;20266;-86
2020/12/06 11:21:00;;;;;;;36.08;25.13;;;4.90;99.90;;;;;;4980759;28;20198;-86
2020/12/06 11:23:26;;;;;;;30.95;23.00;;;5.00;99.90;;;;;;4975228;28;20214;-86
2020/12/06 11:25:53;;;;;;;38.97;25.45;;;5.00;99.90;;;;;;4972454;28;20381;-83
2020/12/06 11:28:19;;;;;;;33.33;25.25;;;5.00;99.90;;;;;;4963320;28;20242;-85
2020/12/06 11:30:46;;;;;;;37.65;26.70;;;4.80;99.90;;;;;;4973261;28;20183;-85
2020/12/06 11:33:12;;;;;;;37.70;25.63;;;4.80;99.90;;;;;;4974313;28;20205;-86
2020/12/06 11:35:39;;;;;;;36.70;25.20;;;4.80;99.90;;;;;;4957854;28;20194;-86
2020/12/06 11:38:06;;;;;;;35.72;24.60;;;4.80;99.90;;;;;;4962355;28;20237;-85
2020/12/06 11:40:32;;;;;;;34.35;22.92;;;4.80;99.90;;;;;;4974440;28;20194;-86
2020/12/06 11:42:58;;;;;;;38.88;28.08;;;4.80;99.90;;;;;;4974504;28;20218;-86
2020/12/06 11:45:25;;;;;;;30.65;22.55;;;4.70;99.90;;;;;;4973981;28;20677;-85
2020/12/06 11:47:51;;;;;;;31.77;24.73;;;4.60;99.90;;;;;;4955616;28;20704;-86
2020/12/06 11:50:17;;;;;;;42.42;26.40;;;4.60;99.90;;;;;;4967175;28;20226;-86
2020/12/06 11:52:44;;;;;;;36.35;25.00;;;4.50;99.90;;;;;;4974321;28;20194;-86
2020/12/06 11:55:11;;;;;;;42.67;28.88;;;4.50;99.90;;;;;;4955800;28;20213;-86
2020/12/06 11:57:38;;;;;;;41.95;27.40;;;4.50;99.90;;;;;;4970961;28;20270;-85
2020/12/06 12:00:05;;;;;;;45.20;31.65;;;4.40;99.90;;;;;;4974338;28;20191;-85
2020/12/06 12:02:31;;;;;;;45.00;29.63;;;4.50;99.90;;;;;;4972616;28;20218;-85
2020/12/06 12:04:57;;;;;;;40.80;28.83;;;4.60;99.90;;;;;;4974070;28;20245;-85
2020/12/06 12:07:24;;;;;;;42.78;28.33;;;4.60;99.90;;;;;;4966888;28;20191;-85
2020/12/06 12:09:50;;;;;;;34.35;25.50;;;4.70;99.90;;;;;;4968002;28;20191;-85
2020/12/06 12:12:17;;;;;;;36.33;25.80;;;4.70;99.90;;;;;;4976942;28;20278;-85
2020/12/06 12:14:44;;;;;;;34.78;26.35;;;4.60;99.90;;;;;;4977360;28;20190;-84
2020/12/06 12:17:11;;;;;;;39.72;28.38;;;4.60;99.90;;;;;;4972893;28;20191;-86
2020/12/06 12:19:38;;;;;;;35.58;28.48;;;4.60;99.90;;;;;;4965963;28;20542;-85
2020/12/06 12:22:04;;;;;;;40.45;28.88;;;4.50;99.90;;;;;;4974428;28;20199;-85
2020/12/06 12:24:30;;;;;;;49.05;30.10;;;4.40;99.90;;;;;;4976958;28;20233;-85
2020/12/06 12:26:58;;;;;;;41.25;27.40;;;4.50;99.90;;;;;;4965857;28;20187;-86
2020/12/06 12:29:25;;;;;;;42.72;30.42;;;4.40;99.90;;;;;;4964852;28;20183;-86
2020/12/06 12:31:51;;;;;;;39.33;28.85;;;4.40;99.90;;;;;;4977521;28;20206;-86
2020/12/06 12:34:18;;;;;;;40.88;28.08;;;4.30;99.90;;;;;;4973450;28;20195;-86
2020/12/06 12:36:45;;;;;;;38.70;30.55;;;4.20;99.90;;;;;;4972804;28;20194;-86
2020/12/06 12:39:11;;;;;;;43.50;30.60;;;4.20;99.90;;;;;;4977385;28;20191;-85
2020/12/06 12:41:37;;;;;;;42.38;26.55;;;4.20;99.90;;;;;;4977375;28;20640;-86
2020/12/06 12:44:05;;;;;;;38.60;30.52;;;4.20;99.90;;;;;;4967203;28;20218;-84
2020/12/06 12:46:33;;;;;;;45.30;31.55;;;4.20;99.90;;;;;;4969371;28;20201;-85
2020/12/06 12:48:59;;;;;;;43.58;29.65;;;4.20;99.90;;;;;;4976933;28;20191;-85
2020/12/06 12:51:26;;;;;;;38.63;28.08;;;4.20;99.90;;;;;;4977578;28;20206;-86
2020/12/06 12:53:53;;;;;;;43.53;30.02;;;4.20;99.90;;;;;;4966658;28;20191;-86
2020/12/06 12:56:19;;;;;;;42.63;31.17;;;4.30;99.90;;;;;;4966249;28;20190;-86
2020/12/06 12:58:45;;;;;;;39.58;29.20;;;4.30;99.90;;;;;;4977294;28;20543;-87
2020/12/06 13:01:12;;;;;;;36.22;27.90;;;4.20;99.90;;;;;;4976946;28;20202;-86
2020/12/06 13:03:39;;;;;;;40.30;28.77;;;4.30;99.90;;;;;;4969549;28;20583;-88
2020/12/06 13:06:05;;;;;;;42.05;26.27;;;4.30;99.90;;;;;;4968793;28;20194;-87
2020/12/06 13:08:31;;;;;;;38.35;27.15;;;4.30;99.90;;;;;;4978158;28;20187;-87
2020/12/06 13:10:57;;;;;;;43.08;30.85;;;4.30;99.90;;;;;;4977527;28;20197;-85
2020/12/06 13:13:25;;;;;;;43.10;28.55;;;4.30;99.90;;;;;;4976426;28;20190;-86
2020/12/06 13:15:51;;;;;;;47.53;33.25;;;4.30;99.90;;;;;;4976493;28;20183;-85
2020/12/06 13:18:17;;;;;;;45.67;28.25;;;4.30;99.90;;;;;;4975719;28;20202;-85
2020/12/06 13:20:44;;;;;;;39.55;26.65;;;4.30;99.90;;;;;;4975249;28;20187;-87
2020/12/06 13:23:12;;;;;;;44.33;26.83;;;4.30;99.90;;;;;;4970255;28;20218;-85
2020/12/06 13:25:38;;;;;;;41.97;28.45;;;4.40;99.90;;;;;;4977536;28;20311;-87
2020/12/06 13:28:04;;;;;;;42.28;29.95;;;4.30;99.90;;;;;;4976078;28;20190;-88
2020/12/06 13:30:31;;;;;;;39.50;30.17;;;4.30;99.90;;;;;;4969398;28;20191;-88
2020/12/06 13:32:57;;;;;;;41.75;28.45;;;4.30;99.90;;;;;;4976123;28;20187;-86
2020/12/06 13:35:23;;;;;;;41.28;29.27;;;4.30;99.90;;;;;;4976288;28;20195;-87
2020/12/06 13:37:50;;;;;;;43.38;30.35;;;4.30;99.90;;;;;;4976147;28;20218;-85
2020/12/06 13:40:17;;;;;;;35.10;26.30;;;4.30;99.90;;;;;;4976170;28;20579;-85
2020/12/06 13:42:43;;;;;;;40.25;29.25;;;4.20;99.90;;;;;;4958550;28;20303;-86
2020/12/06 13:45:09;;;;;;;40.42;29.25;;;4.20;99.90;;;;;;4965556;28;20187;-84
2020/12/06 13:47:36;;;;;;;42.10;30.02;;;4.20;99.90;;;;;;4975651;28;20191;-86
2020/12/06 13:50:03;;;;;;;40.30;27.35;;;4.20;99.90;;;;;;4974378;28;20189;-85
2020/12/06 13:52:31;;;;;;;43.13;26.95;;;4.20;99.90;;;;;;4971339;28;20192;-86
2020/12/06 13:54:58;;;;;;;40.13;27.30;;;4.40;99.90;;;;;;4968755;28;20183;-87
2020/12/06 13:57:24;;;;;;;45.10;29.85;;;4.20;99.90;;;;;;4973009;28;20191;-88
2020/12/06 13:59:51;;;;;;;40.70;26.27;;;4.20;99.90;;;;;;4969572;28;20190;-88
2020/12/06 14:02:18;;;;;;;36.95;26.48;;;4.20;99.90;;;;;;4976012;28;20290;-87
2020/12/06 14:04:44;;;;;;;40.65;26.25;;;4.20;99.90;;;;;;4965198;28;20647;-89
2020/12/06 14:07:10;;;;;;;35.80;25.25;;;4.20;99.90;;;;;;4972680;28;20212;-88
2020/12/06 14:09:37;;;;;;;41.17;28.27;;;4.30;99.90;;;;;;4960245;28;20191;-88
2020/12/06 14:12:04;;;;;;;44.60;29.92;;;4.20;99.90;;;;;;4973562;28;20667;-89
2020/12/06 14:14:30;;;;;;;38.45;26.42;;;4.20;99.90;;;;;;4973425;28;20193;-89
2020/12/06 14:16:56;;;;;;;40.78;27.88;;;4.20;99.90;;;;;;4974902;28;20187;-86
2020/12/06 14:19:23;;;;;;;41.78;28.30;;;4.20;99.90;;;;;;4970128;28;20211;-85
2020/12/06 14:21:52;;;;;;;41.72;29.67;;;4.20;99.90;;;;;;4960900;28;20191;-86
2020/12/06 14:24:18;;;;;;;42.22;29.30;;;4.30;99.90;;;;;;4961939;28;20195;-86
2020/12/06 14:26:47;;;;;;;40.88;29.92;;;4.30;99.90;;;;;;4961934;28;20676;-88
2020/12/06 14:29:15;;;;;;;45.45;28.90;;;4.30;99.90;;;;;;4962953;28;20640;-87
2020/12/06 14:31:42;;;;;;;38.38;26.83;;;4.70;99.90;;;;;;4961219;28;20187;-86
2020/12/06 14:34:09;;;;;;;47.30;28.63;;;4.30;99.90;;;;;;4965279;28;20187;-85
2020/12/06 14:36:35;;;;;;;44.13;31.10;;;4.30;99.90;;;;;;4961305;28;20647;-86
2020/12/06 14:39:01;;;;;;;44.85;29.58;;;4.30;99.90;;;;;;4981445;28;20187;-87
2020/12/06 14:41:28;;;;;;;44.13;27.45;;;4.30;99.90;;;;;;4981063;28;20195;-86
2020/12/06 14:43:54;;;;;;;42.47;29.40;;;4.30;99.90;;;;;;4981880;28;20225;-87
2020/12/06 14:46:21;;;;;;;42.83;29.63;;;4.30;99.90;;;;;;4968562;28;20199;-87
2020/12/06 14:48:48;;;;;;;47.80;33.38;;;4.30;99.90;;;;;;4979139;28;20191;-87
2020/12/06 14:51:14;;;;;;;50.40;35.45;;;4.20;99.90;;;;;;4989270;28;20195;-86
2020/12/06 14:53:40;;;;;;;44.08;30.40;;;4.10;99.90;;;;;;4983443;28;20213;-86